Time;durP1;ratioP1;P1;durP2;ratioP2;P2;SDS_P1;SDS_P2;PMS_P1;PMS_P2;Temp;Humidity;BMP_temperature;BMP_pressure;BME280_temperature;BME280_humidity;BME280_pressure;Samples;Min_cycle;Max_cycle;Signal;HPM_P1;HPM_P2
2023/07/01 00:00:18;;;;;;;;;;;17.30;99.90;;;;;;4826091;29;19924;-91
2023/07/01 00:02:44;;;;;;;;;;;17.30;99.90;;;;;;4832889;29;20269;-89
2023/07/01 00:05:09;;;;;;;;;;;17.30;99.90;;;;;;4847993;29;19949;-91
2023/07/01 00:07:37;;;;;;;;;;;17.30;99.90;;;;;;4827757;29;20014;-92
2023/07/01 00:10:03;;;;;;;;;;;17.40;99.90;;;;;;4827552;29;20285;-90
2023/07/01 00:12:28;;;;;;;;;;;17.40;99.90;;;;;;4827531;29;19930;-90
2023/07/01 00:14:54;;;;;;;;;;;17.40;99.90;;;;;;4828180;29;19924;-90
2023/07/01 00:17:20;;;;;;;;;;;17.40;99.90;;;;;;4845611;29;19923;-91
2023/07/01 00:19:45;;;;;;;;;;;17.40;99.90;;;;;;4844482;29;19935;-91
2023/07/01 00:22:11;;;;;;;;;;;17.40;99.90;;;;;;4827392;29;19979;-90
2023/07/01 00:24:36;;;;;;;;;;;17.40;99.90;;;;;;4827843;29;19931;-90
2023/07/01 00:27:02;;;;;;;;;;;17.40;99.90;;;;;;4827399;29;20055;-91
2023/07/01 00:29:28;;;;;;;;;;;17.40;99.90;;;;;;4827580;29;19930;-91
2023/07/01 00:31:54;;;;;;;;;;;17.40;99.90;;;;;;4838805;29;19928;-91
2023/07/01 00:34:20;;;;;;;;;;;17.40;99.90;;;;;;4827474;29;19944;-89
2023/07/01 00:36:45;;;;;;;;;;;17.40;99.90;;;;;;4827174;29;20333;-89
2023/07/01 00:39:11;;;;;;;;;;;17.40;99.90;;;;;;4827500;29;19927;-89
2023/07/01 00:41:36;;;;;;;;;;;17.40;99.90;;;;;;4827248;29;19924;-90
2023/07/01 00:44:03;;;;;;;;;;;17.40;99.90;;;;;;4827045;29;19991;-90
2023/07/01 00:46:32;;;;;;;;;;;17.40;99.90;;;;;;4839018;29;19947;-90
2023/07/01 00:49:00;;;;;;;;;;;17.40;99.90;;;;;;4839359;29;20416;-90
2023/07/01 00:51:26;;;;;;;;;;;17.40;99.90;;;;;;4826677;29;19949;-90
2023/07/01 00:53:52;;;;;;;;;;;17.40;99.90;;;;;;4828184;29;20407;-89
2023/07/01 00:56:17;;;;;;;;;;;17.40;99.90;;;;;;4844350;29;19927;-88
2023/07/01 00:58:43;;;;;;;;;;;17.40;99.90;;;;;;4842583;29;19967;-90
2023/07/01 01:01:11;;;;;;;;;;;17.40;99.90;;;;;;4830466;29;19947;-90
2023/07/01 01:04:00;;;;;;;;;;;17.40;99.90;;;;;;4830063;29;19928;-88
2023/07/01 01:06:33;;;;;;;;;;;17.40;99.90;;;;;;4829726;29;19923;-89
2023/07/01 01:09:10;;;;;;;;;;;17.40;99.90;;;;;;4845105;29;19932;-89
2023/07/01 01:11:38;;;;;;;;;;;17.40;99.90;;;;;;4835848;29;19924;-89
2023/07/01 01:14:04;;;;;;;;;;;17.40;99.90;;;;;;4862175;29;20019;-89
2023/07/01 01:16:30;;;;;;;;;;;17.40;99.90;;;;;;4831395;29;19927;-88
2023/07/01 01:18:57;;;;;;;;;;;17.30;99.90;;;;;;4829819;29;20011;-89
2023/07/01 01:21:24;;;;;;;;;;;17.40;99.90;;;;;;4830548;29;20399;-89
2023/07/01 01:23:55;;;;;;;;;;;17.30;99.90;;;;;;4830313;29;19924;-90
2023/07/01 01:26:22;;;;;;;;;;;17.30;99.90;;;;;;4830591;29;19924;-88
2023/07/01 01:28:49;;;;;;;;;;;17.30;99.90;;;;;;4829773;29;20325;-88
2023/07/01 01:31:14;;;;;;;;;;;17.30;99.90;;;;;;4831373;29;19924;-87
2023/07/01 01:33:40;;;;;;;;;;;17.30;99.90;;;;;;4829422;29;20312;-88
2023/07/01 01:36:08;;;;;;;;;;;17.30;99.90;;;;;;4840782;29;20373;-88
2023/07/01 01:38:35;;;;;;;;;;;17.30;99.90;;;;;;4829599;29;19934;-88
2023/07/01 01:41:05;;;;;;;;;;;17.30;99.90;;;;;;4829078;29;19947;-89
2023/07/01 01:43:49;;;;;;;;;;;17.30;99.90;;;;;;4829751;29;19935;-88
2023/07/01 01:46:15;;;;;;;;;;;17.20;99.90;;;;;;4842091;29;19924;-89
2023/07/01 01:48:41;;;;;;;;;;;17.20;99.90;;;;;;4829247;29;20014;-90
2023/07/01 01:51:07;;;;;;;;;;;17.10;99.90;;;;;;4841891;29;20492;-90
2023/07/01 01:53:34;;;;;;;;;;;17.00;99.90;;;;;;4829794;29;19953;-93
2023/07/01 01:56:01;;;;;;;;;;;16.90;99.90;;;;;;4829900;29;20284;-93
2023/07/01 01:58:27;;;;;;;;;;;16.80;99.90;;;;;;4830061;29;20162;-92
2023/07/01 02:00:53;;;;;;;;;;;16.60;99.90;;;;;;4834483;29;19933;-94
2023/07/01 02:03:18;;;;;;;;;;;16.50;99.90;;;;;;4848264;29;19927;-94
2023/07/01 02:05:55;;;;;;;;;;;16.40;99.90;;;;;;4830396;29;19939;-95
2023/07/01 02:08:21;;;;;;;;;;;16.40;99.90;;;;;;4829990;29;20401;-95
2023/07/01 02:10:50;;;;;;;;;;;16.30;99.90;;;;;;4828943;29;20015;-94
2023/07/01 02:13:25;;;;;;;;;;;16.10;99.90;;;;;;4829321;29;20027;-92
2023/07/01 02:15:57;;;;;;;;;;;16.10;99.90;;;;;;4830079;29;19924;-93
2023/07/01 02:18:26;;;;;;;;;;;16.20;99.90;;;;;;4829826;29;20377;-95
2023/07/01 02:20:52;;;;;;;;;;;16.00;99.90;;;;;;4830011;29;20102;-93
2023/07/01 02:23:23;;;;;;;;;;;16.00;99.90;;;;;;4830250;29;19928;-94
2023/07/01 02:25:49;;;;;;;;;;;16.00;99.90;;;;;;4845289;29;20019;-94
2023/07/01 02:28:15;;;;;;;;;;;16.00;99.90;;;;;;4829578;29;20020;-92
2023/07/01 02:30:43;;;;;;;;;;;16.00;99.90;;;;;;4839018;29;20018;-93
2023/07/01 02:33:09;;;;;;;;;;;16.00;99.90;;;;;;4831074;29;20354;-95
2023/07/01 02:35:34;;;;;;;;;;;16.00;99.90;;;;;;4829618;29;19924;-92
2023/07/01 02:38:00;;;;;;;;;;;16.10;99.90;;;;;;4830808;29;20014;-94
2023/07/01 02:40:29;;;;;;;;;;;16.10;99.90;;;;;;4826004;29;20310;-94
2023/07/01 02:42:56;;;;;;;;;;;16.10;99.90;;;;;;4827196;29;19982;-95
2023/07/01 02:45:22;;;;;;;;;;;16.10;99.90;;;;;;4828686;29;20377;-92
2023/07/01 02:47:47;;;;;;;;;;;16.10;99.90;;;;;;4829108;29;19972;-94
2023/07/01 02:50:13;;;;;;;;;;;16.10;99.90;;;;;;4829639;29;20019;-94
2023/07/01 02:52:39;;;;;;;;;;;16.20;99.90;;;;;;4829026;29;20470;-93
2023/07/01 02:55:05;;;;;;;;;;;16.20;99.90;;;;;;4829480;29;19934;-91
2023/07/01 02:57:30;;;;;;;;;;;16.20;99.90;;;;;;4829268;29;19952;-93
2023/07/01 02:59:57;;;;;;;;;;;16.30;99.90;;;;;;4837342;29;20018;-94
2023/07/01 03:02:22;;;;;;;;;;;16.30;99.90;;;;;;4830793;29;20387;-92
2023/07/01 03:04:48;;;;;;;;;;;16.30;99.90;;;;;;4828262;29;19944;-92
2023/07/01 03:07:13;;;;;;;;;;;16.30;99.90;;;;;;4837468;29;19929;-93
2023/07/01 03:09:39;;;;;;;;;;;16.40;99.90;;;;;;4828493;29;20008;-93
2023/07/01 03:12:05;;;;;;;;;;;16.40;99.90;;;;;;4828908;29;19930;-92
2023/07/01 03:14:30;;;;;;;;;;;16.40;99.90;;;;;;4828689;29;20308;-93
2023/07/01 03:16:56;;;;;;;;;;;16.40;99.90;;;;;;4827970;29;19940;-91
2023/07/01 03:19:23;;;;;;;;;;;16.40;99.90;;;;;;4835454;29;20263;-91
2023/07/01 03:21:48;;;;;;;;;;;16.40;99.90;;;;;;4830254;29;19931;-90
2023/07/01 03:24:17;;;;;;;;;;;16.30;99.90;;;;;;4829259;29;19950;-91
2023/07/01 03:26:43;;;;;;;;;;;16.30;99.90;;;;;;4828406;29;19928;-90
2023/07/01 03:29:09;;;;;;;;;;;16.20;99.90;;;;;;4828582;29;19974;-91
2023/07/01 03:31:34;;;;;;;;;;;16.20;99.90;;;;;;4828383;29;19986;-91
2023/07/01 03:34:00;;;;;;;;;;;16.20;99.90;;;;;;4828512;29;19964;-92
2023/07/01 03:36:26;;;;;;;;;;;16.10;99.90;;;;;;4829387;29;19924;-90
2023/07/01 03:38:52;;;;;;;;;;;15.70;99.90;;;;;;4835768;29;19931;-92
2023/07/01 03:41:18;;;;;;;;;;;16.10;99.90;;;;;;4830162;29;20377;-92
2023/07/01 03:43:44;;;;;;;;;;;16.10;99.90;;;;;;4835069;29;19975;-92
2023/07/01 03:46:09;;;;;;;;;;;16.10;99.90;;;;;;4825911;29;19928;-91
2023/07/01 03:48:38;;;;;;;;;;;16.00;99.90;;;;;;4827167;29;19931;-91
2023/07/01 03:51:03;;;;;;;;;;;16.00;99.90;;;;;;4827578;29;19927;-90
2023/07/01 03:53:38;;;;;;;;;;;16.00;99.90;;;;;;4833746;29;19931;-90
2023/07/01 03:56:07;;;;;;;;;;;16.00;99.90;;;;;;4826401;29;19928;-91
2023/07/01 03:58:33;;;;;;;;;;;16.00;99.90;;;;;;4826319;29;19939;-92
2023/07/01 04:00:58;;;;;;;;;;;16.00;99.90;;;;;;4825893;29;19924;-91
2023/07/01 04:03:24;;;;;;;;;;;16.00;99.90;;;;;;4827510;29;20011;-89
2023/07/01 04:05:50;;;;;;;;;;;16.00;99.90;;;;;;4825940;29;20289;-90
2023/07/01 04:08:17;;;;;;;;;;;16.00;99.90;;;;;;4826980;29;19935;-89
2023/07/01 04:10:42;;;;;;;;;;;16.00;99.90;;;;;;4826322;29;20090;-91
2023/07/01 04:13:08;;;;;;;;;;;16.00;99.90;;;;;;4826482;29;19927;-89
2023/07/01 04:15:33;;;;;;;;;;;16.00;99.90;;;;;;4836350;29;19924;-90
2023/07/01 04:17:59;;;;;;;;;;;16.00;99.90;;;;;;4835104;29;20023;-89
2023/07/01 04:20:25;;;;;;;;;;;16.00;99.90;;;;;;4825444;29;19919;-91
2023/07/01 04:22:50;;;;;;;;;;;16.00;99.90;;;;;;4825464;29;20134;-89
2023/07/01 04:25:16;;;;;;;;;;;16.10;99.90;;;;;;4826241;29;19924;-90
2023/07/01 04:27:43;;;;;;;;;;;16.10;99.90;;;;;;4824723;29;19931;-88
2023/07/01 04:30:08;;;;;;;;;;;16.10;99.90;;;;;;4826333;29;19931;-90
2023/07/01 04:32:34;;;;;;;;;;;16.10;99.90;;;;;;4834054;29;20293;-89
2023/07/01 04:35:00;;;;;;;;;;;16.10;99.90;;;;;;4839624;29;20043;-88
2023/07/01 04:37:26;;;;;;;;;;;16.10;99.90;;;;;;4831674;29;20035;-89
2023/07/01 04:39:51;;;;;;;;;;;16.20;99.90;;;;;;4826476;29;19928;-90
2023/07/01 04:42:18;;;;;;;;;;;16.20;99.90;;;;;;4824774;29;19928;-89
2023/07/01 04:44:43;;;;;;;;;;;16.20;99.90;;;;;;4837416;29;20071;-89
2023/07/01 04:47:09;;;;;;;;;;;16.20;99.90;;;;;;4834066;29;19975;-88
2023/07/01 04:49:35;;;;;;;;;;;16.20;99.90;;;;;;4837219;29;19932;-89
2023/07/01 04:52:00;;;;;;;;;;;16.20;99.90;;;;;;4833590;29;19924;-89
2023/07/01 04:54:26;;;;;;;;;;;16.20;99.90;;;;;;4838235;29;20459;-88
2023/07/01 04:56:51;;;;;;;;;;;16.30;99.90;;;;;;4824251;29;19924;-90
2023/07/01 04:59:17;;;;;;;;;;;16.30;99.90;;;;;;4825543;29;19996;-88
2023/07/01 05:01:45;;;;;;;;;;;16.30;99.90;;;;;;4824269;29;19932;-88
2023/07/01 05:04:11;;;;;;;;;;;16.30;99.90;;;;;;4824945;29;20393;-88
2023/07/01 05:06:37;;;;;;;;;;;16.30;99.90;;;;;;4833092;29;20019;-88
2023/07/01 05:09:04;;;;;;;;;;;16.30;99.90;;;;;;4852045;29;19938;-88
2023/07/01 05:11:30;;;;;;;;;;;16.40;99.90;;;;;;4827696;29;19928;-88
2023/07/01 05:13:56;;;;;;;;;;;16.40;99.90;;;;;;4824719;29;19924;-89
2023/07/01 05:16:22;;;;;;;;;;;16.40;99.90;;;;;;4824452;29;19932;-88
2023/07/01 05:18:47;;;;;;;;;;;16.40;99.90;;;;;;4826160;29;19928;-88
2023/07/01 05:21:13;;;;;;;;;;;16.40;99.90;;;;;;4824718;29;19932;-88
2023/07/01 05:23:38;;;;;;;;;;;16.50;99.90;;;;;;4826175;29;20326;-89
2023/07/01 05:26:04;;;;;;;;;;;16.50;99.90;;;;;;4830774;29;19948;-87
2023/07/01 05:28:30;;;;;;;;;;;16.50;99.90;;;;;;4825202;29;19931;-88
2023/07/01 05:30:55;;;;;;;;;;;16.50;99.90;;;;;;4825192;29;19924;-88
2023/07/01 05:33:21;;;;;;;;;;;16.50;99.90;;;;;;4825456;29;19934;-88
2023/07/01 05:35:46;;;;;;;;;;;16.60;99.90;;;;;;4831801;29;20380;-89
2023/07/01 05:38:12;;;;;;;;;;;16.60;99.90;;;;;;4824839;29;19923;-89
2023/07/01 05:40:38;;;;;;;;;;;16.60;99.90;;;;;;4824807;29;20240;-88
2023/07/01 05:43:04;;;;;;;;;;;16.60;99.90;;;;;;4824359;29;20296;-88
2023/07/01 05:45:30;;;;;;;;;;;16.60;99.90;;;;;;4824193;29;19931;-89
2023/07/01 05:47:55;;;;;;;;;;;16.70;99.90;;;;;;4833066;29;19928;-96
2023/07/01 05:50:21;;;;;;;;;;;16.70;99.90;;;;;;4829262;29;19932;-90
2023/07/01 05:52:47;;;;;;;;;;;16.70;99.90;;;;;;4831816;29;19935;-89
2023/07/01 05:55:12;;;;;;;;;;;16.70;99.90;;;;;;4832937;29;19935;-91
2023/07/01 05:57:38;;;;;;;;;;;16.80;99.90;;;;;;4827418;29;19934;-90
2023/07/01 06:00:04;;;;;;;;;;;16.80;99.90;;;;;;4827914;29;19947;-90
2023/07/01 06:02:30;;;;;;;;;;;16.80;99.90;;;;;;4829182;29;20015;-88
2023/07/01 06:04:56;;;;;;;;;;;16.80;99.90;;;;;;4836986;29;20098;-89
2023/07/01 06:07:25;;;;;;;;;;;16.80;99.90;;;;;;4828599;29;19924;-88
2023/07/01 06:09:50;;;;;;;;;;;16.80;99.90;;;;;;4828459;29;19971;-88
2023/07/01 06:12:16;;;;;;;;;;;16.80;99.90;;;;;;4827260;29;19989;-89
2023/07/01 06:14:42;;;;;;;;;;;16.90;99.90;;;;;;4827326;29;19924;-90
2023/07/01 06:17:08;;;;;;;;;;;16.90;99.90;;;;;;4829563;29;19931;-89
2023/07/01 06:19:34;;;;;;;;;;;16.90;99.90;;;;;;4828739;29;20053;-87
2023/07/01 06:21:59;;;;;;;;;;;16.90;99.90;;;;;;4830688;29;19920;-87
2023/07/01 06:24:25;;;;;;;;;;;16.90;99.90;;;;;;4830754;29;19935;-88
2023/07/01 06:26:50;;;;;;;;;;;16.90;99.90;;;;;;4835891;29;19927;-90
2023/07/01 06:29:16;;;;;;;;;;;16.90;99.90;;;;;;4829229;29;19935;-91
2023/07/01 06:31:42;;;;;;;;;;;16.80;99.90;;;;;;4828888;29;19928;-95
2023/07/01 06:34:11;;;;;;;;;;;16.70;99.90;;;;;;4829761;29;19922;-94
2023/07/01 06:36:37;;;;;;;;;;;16.70;99.90;;;;;;4828511;29;19935;-92
2023/07/01 06:39:03;;;;;;;;;;;16.80;99.90;;;;;;4829346;29;19924;-95
2023/07/01 06:41:28;;;;;;;;;;;16.60;99.90;;;;;;4835304;24;20293;-92
2023/07/01 06:44:00;;;;;;;;;;;16.60;99.90;;;;;;4823514;29;20324;-94
2023/07/01 06:46:48;;;;;;;;;;;16.60;99.90;;;;;;4813571;29;19939;-93
2023/07/01 06:50:02;;;;;;;;;;;;;;;;;;;;;
2023/07/01 07:14:52;;;;;;;;;;;16.70;99.90;;;;;;5137834;23;19925;-96
2023/07/01 07:22:06;;;;;;;;;;;16.60;99.90;;;;;;4815482;29;19935;-95
2023/07/01 07:25:16;;;;;;;;;;;;;;;;;;;;;
2023/07/01 07:29:09;;;;;;;;;;;16.80;99.90;;;;;;4830309;29;19997;-96
2023/07/01 07:32:17;;;;;;;;;;;16.90;99.90;;;;;;4836454;29;20110;-96
2023/07/01 07:42:19;;;;;;;;;;;17.00;99.90;;;;;;4816544;29;19936;-96
2023/07/01 07:46:39;;;;;;;;;;;17.10;99.90;;;;;;4803935;29;20254;-96
2023/07/01 07:49:26;;;;;;;;;;;;;;;;;;;;;
2023/07/01 08:01:52;;;;;;;;;;;17.50;99.90;;;;;;4789485;29;20317;-96
2023/07/01 08:05:21;;;;;;;;;;;17.20;99.90;;;;;;4789429;29;19942;-96
2023/07/01 08:12:27;;;;;;;;;;;17.50;99.90;;;;;;4680601;30;19973;-96
2023/07/01 08:19:33;;;;;;;;;;;17.80;99.90;;;;;;4722867;30;19927;-96
2023/07/01 08:23:01;;;;;;;;;;;;;;;;;;;;;
2023/07/01 08:26:17;;;;;;;;;;;17.90;99.90;;;;;;4782235;29;19936;-96
2023/07/01 08:32:51;;;;;;;;;;;;;;;;;;;;;
2023/07/01 08:39:24;;;;;;;;;;;17.80;99.90;;;;;;4751911;30;19937;-96
2023/07/01 08:43:17;;;;;;;;;;;;;;;;;;;;;
2023/07/01 08:46:09;;;;;;;;;;;;;;;;;;;;;
2023/07/01 09:10:15;;;;;;;;;;;;;;;;;;;;;
2023/07/01 09:28:06;;;;;;;;;;;;;;;;;;;;;
2023/07/01 09:45:33;;;;;;;;;;;;;;;;;;;;;
2023/07/01 09:48:55;;;;;;;;;;;19.60;99.90;;;;;;4795903;29;19987;-96
2023/07/01 09:55:58;;;;;;;;;;;;;;;;;;;;;
2023/07/01 09:59:16;;;;;;;;;;;;;;;;;;;;;
2023/07/01 10:02:50;;;;;;;;;;;18.90;99.90;;;;;;4752575;30;19927;-96
2023/07/01 10:08:52;;;;;;;;;;;19.20;99.90;;;;;;4773586;29;19925;-96
2023/07/01 10:12:08;;;;;;;;;;;;;;;;;;;;;
2023/07/01 10:18:34;;;;;;;;;;;19.30;99.90;;;;;;4809183;29;20007;-96
2023/07/01 10:24:49;;;;;;;;;;;;;;;;;;;;;
2023/07/01 10:27:47;;;;;;;;;;;19.40;99.90;;;;;;4766412;30;20102;-96
2023/07/01 10:30:21;;;;;;;;;;;19.20;99.90;;;;;;4756065;30;19994;-96
2023/07/01 10:33:01;;;;;;;;;;;19.20;99.90;;;;;;4789241;29;19925;-96
2023/07/01 10:36:18;;;;;;;;;;;;;;;;;;;;;
2023/07/01 10:39:27;;;;;;;;;;;19.10;99.90;;;;;;4836637;29;20007;-96
2023/07/01 10:42:31;;;;;;;;;;;19.20;99.90;;;;;;4837771;29;20365;-96
2023/07/01 10:45:18;;;;;;;;;;;19.40;99.90;;;;;;4787896;29;19940;-96
2023/07/01 10:48:04;;;;;;;;;;;19.50;99.90;;;;;;4757945;30;20371;-95
2023/07/01 10:50:57;;;;;;;;;;;19.70;99.90;;;;;;4778816;29;20264;-95
2023/07/01 11:04:04;;;;;;;;;;;20.20;99.90;;;;;;4821574;29;19985;-96
2023/07/01 11:07:46;;;;;;;;;;;20.20;99.90;;;;;;4840053;29;20461;-96
2023/07/01 11:10:42;;;;;;;;;;;;;;;;;;;;;
2023/07/01 11:14:12;;;;;;;;;;;20.20;99.90;;;;;;4824308;29;19935;-96
2023/07/01 11:16:35;;;;;;;;;;;20.10;99.90;;;;;;4812067;29;20361;-95
2023/07/01 11:19:35;;;;;;;;;;;19.90;99.90;;;;;;4810227;29;19920;-96
2023/07/01 11:29:23;;;;;;;;;;;19.20;99.90;;;;;;4803415;29;19929;-95
2023/07/01 11:35:29;;;;;;;;;;;19.40;99.90;;;;;;4785832;29;19928;-96
2023/07/01 11:39:03;;;;;;;;;;;19.50;99.90;;;;;;4825351;29;19931;-96
2023/07/01 11:42:03;;;;;;;;;;;;;;;;;;;;;
2023/07/01 11:45:27;;;;;;;;;;;19.70;99.90;;;;;;4767678;30;19998;-96
2023/07/01 11:48:33;;;;;;;;;;;19.70;99.90;;;;;;4783171;29;19925;-95
2023/07/01 11:51:04;;;;;;;;;;;19.50;99.90;;;;;;4801437;29;19924;-96
2023/07/01 12:00:35;;;;;;;;;;;19.60;99.90;;;;;;4824627;29;19979;-96
2023/07/01 12:03:15;;;;;;;;;;;19.80;99.90;;;;;;4825490;29;19924;-96
2023/07/01 12:12:45;;;;;;;;;;;20.20;99.90;;;;;;4823636;29;19931;-96
2023/07/01 12:16:16;;;;;;;;;;;20.50;99.90;;;;;;4809682;29;19935;-96
2023/07/01 12:26:32;;;;;;;;;;;20.40;99.90;;;;;;4839327;29;20019;-95
2023/07/01 12:29:18;;;;;;;;;;;20.80;99.90;;;;;;4811588;29;20412;-96
2023/07/01 12:32:16;;;;;;;;;;;21.20;99.90;;;;;;4823327;29;19924;-96
2023/07/01 12:34:44;;;;;;;;;;;21.70;99.90;;;;;;4801473;29;19924;-96
2023/07/01 12:38:37;;;;;;;;;;;22.00;99.90;;;;;;4810328;29;19928;-96
2023/07/01 12:41:28;;;;;;;;;;;;;;;;;;;;;
2023/07/01 12:44:31;;;;;;;;;;;22.20;99.90;;;;;;4810758;29;19928;-95
2023/07/01 12:47:54;;;;;;;;;;;22.10;99.90;;;;;;4832317;29;19963;-95
2023/07/01 12:50:45;;;;;;;;;;;21.90;99.90;;;;;;4744531;29;19925;-95
2023/07/01 12:54:06;;;;;;;;;;;22.10;99.90;;;;;;4840835;29;19994;-95
2023/07/01 13:00:22;;;;;;;;;;;21.70;99.90;;;;;;4825262;29;19924;-96
2023/07/01 13:03:11;;;;;;;;;;;21.70;99.90;;;;;;4806030;29;20024;-96
2023/07/01 13:05:43;;;;;;;;;;;21.60;99.90;;;;;;4816020;29;19935;-95
2023/07/01 13:08:32;;;;;;;;;;;21.60;99.90;;;;;;4821550;29;19979;-96
2023/07/01 13:11:09;;;;;;;;;;;21.60;99.90;;;;;;4819224;29;20414;-95
2023/07/01 13:17:40;;;;;;;;;;;21.80;99.90;;;;;;4788831;29;19928;-96
2023/07/01 13:29:40;;;;;;;;;;;21.60;99.90;;;;;;4808430;29;19979;-96
2023/07/01 13:32:51;;;;;;;;;;;;;;;;;;;;;
2023/07/01 13:42:10;;;;;;;;;;;20.80;99.90;;;;;;4808690;29;19950;-96
2023/07/01 13:44:57;;;;;;;;;;;20.80;99.90;;;;;;4844870;29;19935;-96
2023/07/01 13:47:56;;;;;;;;;;;20.90;99.90;;;;;;4823941;29;19928;-95
2023/07/01 13:50:45;;;;;;;;;;;21.00;99.90;;;;;;4843818;29;20400;-96
2023/07/01 13:53:43;;;;;;;;;;;21.00;99.90;;;;;;4823929;29;19924;-95
2023/07/01 13:57:18;;;;;;;;;;;20.90;99.90;;;;;;4826277;29;20259;-96
2023/07/01 14:04:04;;;;;;;;;;;20.40;99.90;;;;;;4817777;29;19924;-96
2023/07/01 14:07:00;;;;;;;;;;;;;;;;;;;;;
2023/07/01 14:10:10;;;;;;;;;;;;;;;;;;;;;
2023/07/01 14:23:15;;;;;;;;;;;19.90;99.90;;;;;;4804710;29;19936;-96
2023/07/01 14:26:23;;;;;;;;;;;;;;;;;;;;;
2023/07/01 14:32:27;;;;;;;;;;;;;;;;;;;;;
2023/07/01 14:35:37;;;;;;;;;;;20.50;99.90;;;;;;4807247;29;19929;-96
2023/07/01 14:38:53;;;;;;;;;;;20.50;99.90;;;;;;4785953;29;19925;-96
2023/07/01 14:45:29;;;;;;;;;;;20.70;99.90;;;;;;4824718;29;19929;-96
2023/07/01 14:48:28;;;;;;;;;;;;;;;;;;;;;
2023/07/01 14:51:30;;;;;;;;;;;;;;;;;;;;;
2023/07/01 14:57:04;;;;;;;;;;;20.20;99.90;;;;;;4806759;29;20015;-96
2023/07/01 15:03:19;;;;;;;;;;;;;;;;;;;;;
2023/07/01 15:09:27;;;;;;;;;;;20.30;99.90;;;;;;4770832;29;19925;-96
2023/07/01 15:12:41;;;;;;;;;;;;;;;;;;;;;
2023/07/01 15:15:38;;;;;;;;;;;20.60;99.90;;;;;;4766554;29;20325;-96
2023/07/01 15:18:32;;;;;;;;;;;20.30;99.90;;;;;;4784730;29;19931;-96
2023/07/01 15:25:17;;;;;;;;;;;20.50;99.90;;;;;;4838109;29;20075;-95
2023/07/01 15:28:13;;;;;;;;;;;20.30;99.90;;;;;;4794573;29;20073;-96
2023/07/01 15:31:26;;;;;;;;;;;20.10;99.90;;;;;;4783652;29;19929;-96
2023/07/01 15:38:08;;;;;;;;;;;20.40;99.90;;;;;;4795709;29;19926;-96
2023/07/01 16:11:27;;;;;;;;;;;21.00;99.90;;;;;;4764907;30;19933;-96
2023/07/01 16:17:40;;;;;;;;;;;20.90;99.90;;;;;;4841007;23;19939;-91
2023/07/01 16:20:40;;;;;;;;;;;20.70;99.90;;;;;;4845102;29;19931;-93
2023/07/01 16:23:08;;;;;;;;;;;20.70;99.90;;;;;;4831176;29;19935;-93
2023/07/01 16:25:47;;;;;;;;;;;;;;;;;;;;;
2023/07/01 16:28:46;;;;;;;;;;;20.50;99.90;;;;;;4840882;29;19931;-90
2023/07/01 16:31:13;;;;;;;;;;;20.50;99.90;;;;;;4820550;29;19925;-91
2023/07/01 16:33:39;;;;;;;;;;;20.50;99.90;;;;;;4823050;29;19928;-91
2023/07/01 16:36:21;;;;;;;;;;;20.50;99.90;;;;;;4827608;29;19934;-91
2023/07/01 16:38:48;;;;;;;;;;;20.40;99.90;;;;;;4830168;29;19928;-91
2023/07/01 16:41:26;;;;;;;;;;;20.30;99.90;;;;;;4835440;29;20288;-90
2023/07/01 16:44:01;;;;;;;;;;;20.20;99.90;;;;;;4817510;29;19980;-91
2023/07/01 16:46:35;;;;;;;;;;;20.20;99.90;;;;;;4814079;29;20273;-92
2023/07/01 16:49:01;;;;;;;;;;;20.20;99.90;;;;;;4824137;29;20373;-91
2023/07/01 16:51:42;;;;;;;;;;;20.20;99.90;;;;;;4833279;29;20421;-90
2023/07/01 16:54:09;;;;;;;;;;;20.20;99.90;;;;;;4828685;29;19920;-91
2023/07/01 16:56:37;;;;;;;;;;;20.10;99.90;;;;;;4840896;29;19991;-91
2023/07/01 16:59:08;;;;;;;;;;;20.00;99.90;;;;;;4823684;29;20039;-90
2023/07/01 17:01:49;;;;;;;;;;;19.90;99.90;;;;;;4809967;29;19931;-92
2023/07/01 17:04:47;;;;;;;;;;;19.80;99.90;;;;;;4838759;29;19920;-91
2023/07/01 17:07:21;;;;;;;;;;;19.70;99.90;;;;;;4820616;29;19929;-92
2023/07/01 17:09:49;;;;;;;;;;;19.60;99.90;;;;;;4834655;29;20349;-91
2023/07/01 17:12:20;;;;;;;;;;;19.50;99.90;;;;;;4846009;29;19935;-91
2023/07/01 17:14:47;;;;;;;;;;;19.50;99.90;;;;;;4831657;29;19924;-91
2023/07/01 17:17:18;;;;;;;;;;;19.50;99.90;;;;;;4822493;29;19967;-91
2023/07/01 17:19:46;;;;;;;;;;;19.40;99.90;;;;;;4821865;29;20204;-91
2023/07/01 17:22:12;;;;;;;;;;;19.10;99.90;;;;;;4836812;29;19932;-91
2023/07/01 17:24:37;;;;;;;;;;;19.20;99.90;;;;;;4837715;29;19934;-91
2023/07/01 17:27:03;;;;;;;;;;;19.00;99.90;;;;;;4836923;29;20346;-92
2023/07/01 17:29:38;;;;;;;;;;;19.00;99.90;;;;;;4825132;29;19925;-91
2023/07/01 17:32:07;;;;;;;;;;;18.90;99.90;;;;;;4844667;29;20331;-92
2023/07/01 17:34:38;;;;;;;;;;;18.80;99.90;;;;;;4841189;29;19986;-91
2023/07/01 17:37:04;;;;;;;;;;;18.70;99.90;;;;;;4825932;29;20022;-93
2023/07/01 17:39:37;;;;;;;;;;;18.70;99.90;;;;;;4829569;29;19982;-93
2023/07/01 17:42:03;;;;;;;;;;;18.70;99.90;;;;;;4834430;29;19928;-91
2023/07/01 17:44:32;;;;;;;;;;;18.80;99.90;;;;;;4825364;29;20400;-91
2023/07/01 17:47:04;;;;;;;;;;;18.80;99.90;;;;;;4831001;29;20235;-91
2023/07/01 17:49:36;;;;;;;;;;;18.90;99.90;;;;;;4842579;29;20406;-91
2023/07/01 17:52:26;;;;;;;;;;;18.80;99.90;;;;;;4826652;29;20301;-91
2023/07/01 17:55:00;;;;;;;;;;;18.80;99.90;;;;;;4817130;29;19929;-91
2023/07/01 17:57:30;;;;;;;;;;;18.90;99.90;;;;;;4838694;29;20617;-91
2023/07/01 18:00:05;;;;;;;;;;;18.70;99.90;;;;;;4819574;29;19988;-91
2023/07/01 18:02:36;;;;;;;;;;;18.70;99.90;;;;;;4828456;29;19935;-91
2023/07/01 18:05:02;;;;;;;;;;;18.70;99.90;;;;;;4825856;29;19931;-90
2023/07/01 18:07:28;;;;;;;;;;;18.70;99.90;;;;;;4845075;29;20304;-91
2023/07/01 18:09:54;;;;;;;;;;;18.60;99.90;;;;;;4861217;29;20098;-91
2023/07/01 18:12:20;;;;;;;;;;;18.40;99.90;;;;;;4828176;29;19924;-92
2023/07/01 18:14:49;;;;;;;;;;;18.30;99.90;;;;;;4826037;29;19925;-91
2023/07/01 18:17:14;;;;;;;;;;;18.50;99.90;;;;;;4828253;29;19991;-92
2023/07/01 18:19:41;;;;;;;;;;;18.60;99.90;;;;;;4816936;29;20330;-91
2023/07/01 18:22:07;;;;;;;;;;;18.50;99.90;;;;;;4838139;29;19942;-92
2023/07/01 18:24:32;;;;;;;;;;;18.50;99.90;;;;;;4822325;29;19924;-91
2023/07/01 18:26:59;;;;;;;;;;;18.50;99.90;;;;;;4826675;29;19967;-91
2023/07/01 18:30:01;;;;;;;;;;;18.50;99.90;;;;;;4825769;29;19928;-91
2023/07/01 18:32:26;;;;;;;;;;;18.50;99.90;;;;;;4801781;29;19933;-91
2023/07/01 18:34:55;;;;;;;;;;;18.50;99.90;;;;;;4832025;29;19931;-94
2023/07/01 18:37:21;;;;;;;;;;;18.50;99.90;;;;;;4833362;29;20360;-92
2023/07/01 18:39:47;;;;;;;;;;;18.40;99.90;;;;;;4822664;29;20370;-92
2023/07/01 18:42:12;;;;;;;;;;;18.50;99.90;;;;;;4816688;29;19923;-92
2023/07/01 18:44:41;;;;;;;;;;;18.50;99.90;;;;;;4830077;29;20519;-90
2023/07/01 18:47:31;;;;;;;;;;;18.40;99.90;;;;;;4832446;29;20023;-91
2023/07/01 18:50:00;;;;;;;;;;;18.20;99.90;;;;;;4808188;29;19929;-91
2023/07/01 18:52:26;;;;;;;;;;;18.30;99.90;;;;;;4821397;29;19928;-93
2023/07/01 18:54:57;;;;;;;;;;;18.30;99.90;;;;;;4823127;29;20077;-92
2023/07/01 18:57:23;;;;;;;;;;;18.30;99.90;;;;;;4822425;29;20089;-92
2023/07/01 19:02:54;;;;;;;;;;;18.20;99.90;;;;;;4817141;29;19927;-92
2023/07/01 19:05:32;;;;;;;;;;;18.20;99.90;;;;;;4841042;29;19931;-92
2023/07/01 19:07:58;;;;;;;;;;;18.20;99.90;;;;;;4822334;29;20028;-92
2023/07/01 19:10:29;;;;;;;;;;;18.70;99.90;;;;;;4834476;29;19932;-91
2023/07/01 19:12:54;;;;;;;;;;;18.10;99.90;;;;;;4822994;29;19928;-92
2023/07/01 19:15:23;;;;;;;;;;;17.80;99.90;;;;;;4822634;29;19928;-92
2023/07/01 19:17:51;;;;;;;;;;;18.10;99.90;;;;;;4835378;29;20452;-91
2023/07/01 19:20:42;;;;;;;;;;;18.00;99.90;;;;;;4815757;29;20309;-91
2023/07/01 19:23:10;;;;;;;;;;;18.00;99.90;;;;;;4824650;29;19929;-93
2023/07/01 19:25:46;;;;;;;;;;;18.00;99.90;;;;;;4859801;29;20415;-91
2023/07/01 19:28:19;;;;;;;;;;;18.00;99.90;;;;;;4828564;29;19942;-92
2023/07/01 19:30:48;;;;;;;;;;;17.90;99.90;;;;;;4821464;29;19924;-91
2023/07/01 19:33:18;;;;;;;;;;;18.00;99.90;;;;;;4822577;29;19950;-91
2023/07/01 19:35:55;;;;;;;;;;;17.70;99.90;;;;;;4834832;29;19924;-91
2023/07/01 19:38:21;;;;;;;;;;;17.90;99.90;;;;;;4821452;29;19935;-91
2023/07/01 19:40:47;;;;;;;;;;;17.80;99.90;;;;;;4819213;29;19932;-91
2023/07/01 19:43:17;;;;;;;;;;;17.80;99.90;;;;;;4806947;29;20389;-92
2023/07/01 19:45:44;;;;;;;;;;;17.60;99.90;;;;;;4817264;29;19932;-92
2023/07/01 19:48:10;;;;;;;;;;;17.90;99.90;;;;;;4836720;29;19974;-91
2023/07/01 19:50:52;;;;;;;;;;;17.60;99.90;;;;;;4822410;29;19977;-91
2023/07/01 19:53:30;;;;;;;;;;;17.70;99.90;;;;;;4838395;24;20403;-93
2023/07/01 19:55:57;;;;;;;;;;;17.60;99.90;;;;;;4824242;29;20377;-92
2023/07/01 19:58:23;;;;;;;;;;;17.70;99.90;;;;;;4824558;29;20008;-91
2023/07/01 20:00:49;;;;;;;;;;;17.60;99.90;;;;;;4812325;29;19961;-91
2023/07/01 20:03:26;;;;;;;;;;;17.50;99.90;;;;;;4840062;29;20214;-91
2023/07/01 20:05:52;;;;;;;;;;;17.50;99.90;;;;;;4824277;29;19928;-92
2023/07/01 20:08:18;;;;;;;;;;;17.50;99.90;;;;;;4839982;29;20316;-92